Time;durP1;ratioP1;P1;durP2;ratioP2;P2;SDS_P1;SDS_P2;PMS_P1;PMS_P2;Temp;Humidity;BMP_temperature;BMP_pressure;BME280_temperature;BME280_humidity;BME280_pressure;Samples;Min_cycle;Max_cycle;Signal;HPM_P1;HPM_P2
2023/07/23 00:00:08;;;;;;;3.23;2.40;;;24.40;40.90;;;;;;5007344;28;20978;-72
2023/07/23 00:02:42;;;;;;;3.33;3.03;;;24.40;41.10;;;;;;5009635;28;20597;-73
2023/07/23 00:05:11;;;;;;;3.93;3.57;;;24.40;41.00;;;;;;4984431;28;20627;-73
2023/07/23 00:07:39;;;;;;;2.90;2.70;;;24.40;40.80;;;;;;5019544;28;20468;-73
2023/07/23 00:10:09;;;;;;;2.73;2.53;;;24.40;41.00;;;;;;5028824;28;20451;-73
2023/07/23 00:12:37;;;;;;;3.23;2.93;;;24.40;41.20;;;;;;4997527;28;20463;-73
2023/07/23 00:15:06;;;;;;;3.20;2.90;;;24.40;41.20;;;;;;4980681;28;20478;-73
2023/07/23 00:17:35;;;;;;;3.30;2.97;;;24.40;41.30;;;;;;5026673;28;21012;-72
2023/07/23 00:20:07;;;;;;;3.10;2.80;;;24.40;41.30;;;;;;5005721;28;20505;-73
2023/07/23 00:22:35;;;;;;;2.50;2.30;;;24.40;41.20;;;;;;5010361;28;20479;-73
2023/07/23 00:25:05;;;;;;;2.90;2.70;;;24.40;41.00;;;;;;5000654;28;20482;-73
2023/07/23 00:27:34;;;;;;;3.27;2.97;;;24.40;40.90;;;;;;5018951;28;20474;-73
2023/07/23 00:30:03;;;;;;;3.00;2.80;;;24.40;40.90;;;;;;5012220;28;20456;-73
2023/07/23 00:32:31;;;;;;;3.37;3.07;;;24.30;40.90;;;;;;5008516;28;20485;-73
2023/07/23 00:35:00;;;;;;;3.83;2.83;;;24.40;41.20;;;;;;5003515;28;20554;-73
2023/07/23 00:37:31;;;;;;;2.50;2.30;;;24.40;41.00;;;;;;5005053;28;20485;-73
2023/07/23 00:39:59;;;;;;;2.63;2.40;;;24.30;41.00;;;;;;5023016;28;20470;-74
2023/07/23 00:42:29;;;;;;;3.10;2.90;;;24.30;41.10;;;;;;4990103;28;20466;-73
2023/07/23 00:44:57;;;;;;;2.93;2.73;;;24.40;41.30;;;;;;5010039;28;20454;-73
2023/07/23 00:47:26;;;;;;;3.00;2.80;;;24.40;41.30;;;;;;5027723;28;20544;-73
2023/07/23 00:49:56;;;;;;;3.47;3.17;;;24.30;40.80;;;;;;5006934;28;20426;-73
2023/07/23 00:52:25;;;;;;;3.80;3.27;;;24.30;40.90;;;;;;5008122;28;20560;-73
2023/07/23 00:54:55;;;;;;;3.20;2.90;;;24.30;40.80;;;;;;5004658;28;20479;-72
2023/07/23 00:57:24;;;;;;;3.37;3.07;;;24.30;40.90;;;;;;5025954;28;20487;-73
2023/07/23 00:59:53;;;;;;;2.63;2.43;;;24.30;40.80;;;;;;5012079;28;20561;-73
2023/07/23 01:02:22;;;;;;;3.70;3.40;;;24.30;40.80;;;;;;5007767;28;20481;-73
2023/07/23 01:04:50;;;;;;;2.40;2.20;;;24.30;40.80;;;;;;5019635;28;20502;-72
2023/07/23 01:07:20;;;;;;;2.73;2.53;;;24.30;40.80;;;;;;5006779;28;20469;-73
2023/07/23 01:09:51;;;;;;;3.40;3.10;;;24.30;40.80;;;;;;5003085;28;20439;-73
2023/07/23 01:12:21;;;;;;;2.80;2.60;;;24.30;40.70;;;;;;5012312;28;20470;-73
2023/07/23 01:14:51;;;;;;;3.20;2.90;;;24.30;40.90;;;;;;5007779;28;20466;-73
2023/07/23 01:17:20;;;;;;;2.60;2.40;;;24.30;40.80;;;;;;5005046;28;20478;-73
2023/07/23 01:19:59;;;;;;;3.60;2.60;;;24.30;40.50;;;;;;5032829;28;20466;-71
2023/07/23 01:22:29;;;;;;;3.60;3.30;;;24.30;40.70;;;;;;5001633;28;20823;-72
2023/07/23 01:24:58;;;;;;;2.80;2.60;;;24.30;40.30;;;;;;5008560;28;20488;-73
2023/07/23 01:27:26;;;;;;;2.93;2.73;;;24.30;40.60;;;;;;5010605;28;20482;-73
2023/07/23 01:29:55;;;;;;;3.80;3.10;;;24.30;40.70;;;;;;5025932;28;20521;-73
2023/07/23 01:32:23;;;;;;;3.00;2.80;;;24.30;40.80;;;;;;4999233;28;20991;-72
2023/07/23 01:34:52;;;;;;;3.63;3.33;;;24.30;40.70;;;;;;5032150;28;20491;-73
2023/07/23 01:37:21;;;;;;;2.70;2.50;;;24.30;40.20;;;;;;5020988;28;20482;-73
2023/07/23 01:39:51;;;;;;;4.33;2.40;;;24.30;42.00;;;;;;5005973;28;20483;-72
2023/07/23 01:42:20;;;;;;;3.40;3.10;;;24.30;40.50;;;;;;5025565;28;20524;-73
2023/07/23 01:44:48;;;;;;;3.83;3.53;;;24.30;40.70;;;;;;5004833;28;20452;-72
2023/07/23 01:47:17;;;;;;;3.77;3.40;;;24.30;40.40;;;;;;5020021;28;20482;-74
2023/07/23 01:49:45;;;;;;;2.90;2.53;;;24.30;40.60;;;;;;5027524;28;20982;-73
2023/07/23 01:52:13;;;;;;;3.27;3.07;;;24.30;40.60;;;;;;5010063;28;20466;-73
2023/07/23 01:54:42;;;;;;;2.97;2.77;;;24.30;40.70;;;;;;5031042;28;20474;-73
2023/07/23 01:57:12;;;;;;;4.10;3.27;;;24.30;40.60;;;;;;5026158;28;20969;-73
2023/07/23 01:59:40;;;;;;;4.30;3.20;;;24.30;40.50;;;;;;5026770;28;20455;-73
2023/07/23 02:02:10;;;;;;;3.43;3.13;;;24.30;40.50;;;;;;5007423;28;20540;-73
2023/07/23 02:04:39;;;;;;;3.47;3.00;;;24.30;40.30;;;;;;5018806;28;21011;-73
2023/07/23 02:07:07;;;;;;;3.63;3.33;;;24.30;40.20;;;;;;5028334;28;20568;-73
2023/07/23 02:09:36;;;;;;;3.33;3.03;;;24.30;40.50;;;;;;5028160;28;20434;-73
2023/07/23 02:12:06;;;;;;;3.33;3.10;;;24.30;40.40;;;;;;5033759;28;20475;-73
2023/07/23 02:14:36;;;;;;;3.00;2.70;;;24.30;40.60;;;;;;5010750;28;20455;-73
2023/07/23 02:17:04;;;;;;;3.20;2.90;;;24.30;40.60;;;;;;5025912;28;20477;-72
2023/07/23 02:19:33;;;;;;;4.03;3.73;;;24.30;40.80;;;;;;5014473;28;20477;-73
2023/07/23 02:22:01;;;;;;;3.37;2.90;;;24.30;40.80;;;;;;5039552;28;20476;-73
2023/07/23 02:24:30;;;;;;;3.43;3.13;;;24.30;40.40;;;;;;5033952;28;20465;-72
2023/07/23 02:26:59;;;;;;;3.47;3.17;;;24.30;40.40;;;;;;5009294;28;20475;-72
2023/07/23 02:29:27;;;;;;;3.50;2.87;;;24.30;40.50;;;;;;5035957;28;20526;-73
2023/07/23 02:31:57;;;;;;;3.27;2.97;;;24.30;40.80;;;;;;5010323;28;20471;-72
2023/07/23 02:34:25;;;;;;;4.03;3.27;;;24.30;40.60;;;;;;5028572;28;20465;-73
2023/07/23 02:36:54;;;;;;;3.20;2.97;;;24.30;40.50;;;;;;5026307;28;20485;-73
2023/07/23 02:39:22;;;;;;;3.07;2.87;;;24.30;40.70;;;;;;5020154;28;20447;-74
2023/07/23 02:41:50;;;;;;;3.93;3.47;;;24.30;40.90;;;;;;5009044;28;20469;-72
2023/07/23 02:44:19;;;;;;;3.40;2.93;;;24.30;40.90;;;;;;5010819;28;20545;-72
2023/07/23 02:46:48;;;;;;;4.17;2.97;;;24.30;40.60;;;;;;5017580;28;20469;-66
2023/07/23 02:49:17;;;;;;;3.30;3.00;;;24.30;40.80;;;;;;5014859;28;20449;-67
2023/07/23 02:51:46;;;;;;;3.27;2.97;;;24.20;40.90;;;;;;5027640;28;20474;-65
2023/07/23 02:54:14;;;;;;;2.70;2.50;;;24.30;41.00;;;;;;5012607;28;20470;-65
2023/07/23 02:56:42;;;;;;;4.93;3.57;;;24.30;41.10;;;;;;4983156;28;20566;-67
2023/07/23 02:59:11;;;;;;;3.37;3.07;;;24.20;40.60;;;;;;5019984;28;20452;-67
2023/07/23 03:01:39;;;;;;;2.67;2.47;;;24.30;40.60;;;;;;5005002;28;20508;-66
2023/07/23 03:04:08;;;;;;;2.70;2.50;;;24.30;40.70;;;;;;5029789;28;20489;-67
2023/07/23 03:06:38;;;;;;;4.07;3.67;;;24.30;41.00;;;;;;5009317;28;20954;-65
2023/07/23 03:09:06;;;;;;;3.23;3.00;;;24.20;40.70;;;;;;5008606;28;20458;-67
2023/07/23 03:11:35;;;;;;;3.00;2.80;;;24.20;41.00;;;;;;5008175;28;20512;-66
2023/07/23 03:14:03;;;;;;;3.33;3.03;;;24.30;41.20;;;;;;5023392;28;20888;-66
2023/07/23 03:16:32;;;;;;;3.07;2.87;;;24.30;40.70;;;;;;5022023;28;20440;-67
2023/07/23 03:19:00;;;;;;;3.00;2.80;;;24.20;40.80;;;;;;5023596;28;20449;-67
2023/07/23 03:21:28;;;;;;;3.37;3.07;;;24.20;40.90;;;;;;5021062;28;20476;-67
2023/07/23 03:23:59;;;;;;;3.20;2.90;;;24.30;41.10;;;;;;5009259;28;20519;-66
2023/07/23 03:26:27;;;;;;;3.13;2.83;;;24.20;40.80;;;;;;5007822;28;20466;-67
2023/07/23 03:28:56;;;;;;;3.63;2.80;;;24.30;42.50;;;;;;5005647;28;20454;-66
2023/07/23 03:31:24;;;;;;;3.00;2.53;;;24.20;41.20;;;;;;5017167;28;20529;-66
2023/07/23 03:33:53;;;;;;;3.13;2.83;;;24.30;41.20;;;;;;5003239;28;20469;-65
2023/07/23 03:36:21;;;;;;;2.70;2.50;;;24.20;40.90;;;;;;5031186;28;20467;-66
2023/07/23 03:38:51;;;;;;;2.73;2.53;;;24.20;41.00;;;;;;5008758;28;20786;-67
2023/07/23 03:41:21;;;;;;;2.97;2.67;;;24.20;40.90;;;;;;5008968;28;20540;-67
2023/07/23 03:43:50;;;;;;;2.80;2.50;;;24.20;40.80;;;;;;5020903;28;20471;-67
2023/07/23 03:46:18;;;;;;;2.93;2.73;;;24.20;40.90;;;;;;4998678;28;20570;-67
2023/07/23 03:48:47;;;;;;;3.67;2.43;;;24.20;41.10;;;;;;5014797;28;20544;-67
2023/07/23 03:51:16;;;;;;;3.77;3.37;;;24.20;40.70;;;;;;5015434;28;20450;-67
2023/07/23 03:53:45;;;;;;;2.37;2.17;;;24.20;41.00;;;;;;5024755;28;20469;-66
2023/07/23 03:56:13;;;;;;;3.07;2.57;;;24.20;41.00;;;;;;5008359;28;20494;-64
2023/07/23 03:58:43;;;;;;;2.80;2.60;;;24.20;40.90;;;;;;4998354;28;20442;-67
2023/07/23 04:01:11;;;;;;;2.60;2.40;;;24.20;40.80;;;;;;5022942;28;20853;-65
2023/07/23 04:03:40;;;;;;;2.73;2.53;;;24.20;41.10;;;;;;5007372;28;21000;-66
2023/07/23 04:06:09;;;;;;;2.23;2.00;;;24.20;41.10;;;;;;5008757;28;20439;-66
2023/07/23 04:08:37;;;;;;;2.80;2.60;;;24.20;41.20;;;;;;5000328;28;20431;-66
2023/07/23 04:11:07;;;;;;;3.83;3.10;;;24.20;40.50;;;;;;5024299;28;20821;-66
2023/07/23 04:13:36;;;;;;;3.00;2.70;;;24.20;40.80;;;;;;5022406;28;20481;-66
2023/07/23 04:16:10;;;;;;;3.00;2.70;;;24.20;41.10;;;;;;5032555;28;20488;-66
2023/07/23 04:18:49;;;;;;;2.83;2.63;;;24.20;41.00;;;;;;5024451;28;20510;-67
2023/07/23 04:21:19;;;;;;;3.07;2.47;;;24.20;41.00;;;;;;5005620;28;20920;-65
2023/07/23 04:23:48;;;;;;;2.90;2.47;;;24.20;41.00;;;;;;5010169;28;20828;-66
2023/07/23 04:26:18;;;;;;;3.90;2.90;;;24.10;40.70;;;;;;5023602;28;21022;-66
2023/07/23 04:28:46;;;;;;;3.17;2.87;;;24.10;41.00;;;;;;5006820;28;20437;-66
2023/07/23 04:31:16;;;;;;;2.60;2.40;;;24.10;40.80;;;;;;5013064;28;20469;-67
2023/07/23 04:33:45;;;;;;;3.27;2.97;;;24.10;40.90;;;;;;5007088;28;20554;-65
2023/07/23 04:36:15;;;;;;;2.93;2.70;;;24.10;40.80;;;;;;5008931;28;20452;-66
2023/07/23 04:38:44;;;;;;;3.00;2.63;;;24.10;41.10;;;;;;5006680;28;20804;-66
2023/07/23 04:41:13;;;;;;;3.40;3.10;;;24.10;40.90;;;;;;4999068;28;20848;-66
2023/07/23 04:43:42;;;;;;;2.67;2.47;;;24.10;41.20;;;;;;5004652;28;20602;-66
2023/07/23 04:46:11;;;;;;;2.80;2.60;;;24.10;41.20;;;;;;5002893;28;20450;-67
2023/07/23 04:48:41;;;;;;;2.63;2.43;;;24.10;41.30;;;;;;5001887;28;20452;-65
2023/07/23 04:51:10;;;;;;;4.90;2.93;;;24.10;41.10;;;;;;5023294;28;20466;-65
2023/07/23 04:53:39;;;;;;;3.50;2.40;;;24.10;41.30;;;;;;5002807;28;20469;-68
2023/07/23 04:56:08;;;;;;;2.87;2.67;;;24.10;41.50;;;;;;5009841;28;20836;-66
2023/07/23 04:58:36;;;;;;;3.20;2.90;;;24.10;41.30;;;;;;5009747;28;20456;-65
2023/07/23 05:01:09;;;;;;;2.50;2.30;;;24.10;41.30;;;;;;5010545;28;20473;-67
2023/07/23 05:03:40;;;;;;;3.13;2.40;;;24.10;41.30;;;;;;5003383;28;21107;-65
2023/07/23 05:06:09;;;;;;;3.10;2.80;;;24.10;42.50;;;;;;5010473;28;20479;-67
2023/07/23 05:08:37;;;;;;;2.50;2.30;;;24.10;41.20;;;;;;5024508;28;20500;-64
2023/07/23 05:11:06;;;;;;;2.50;2.30;;;24.10;41.30;;;;;;5026943;28;20451;-67
2023/07/23 05:13:36;;;;;;;3.00;2.70;;;24.10;41.30;;;;;;5006276;28;20469;-66
2023/07/23 05:16:05;;;;;;;2.40;2.20;;;24.10;41.30;;;;;;5039872;28;20438;-65
2023/07/23 05:18:34;;;;;;;3.00;2.80;;;24.10;41.50;;;;;;5032279;28;20864;-66
2023/07/23 05:21:04;;;;;;;3.17;2.80;;;24.10;41.20;;;;;;5025242;28;20488;-66
2023/07/23 05:23:33;;;;;;;2.97;2.67;;;24.10;41.10;;;;;;5007308;28;20534;-67
2023/07/23 05:26:01;;;;;;;3.23;2.70;;;24.10;41.40;;;;;;5001735;28;20441;-66
2023/07/23 05:28:29;;;;;;;2.87;2.40;;;24.10;41.50;;;;;;5008742;28;20446;-66
2023/07/23 05:30:59;;;;;;;2.90;2.40;;;24.10;41.50;;;;;;5003642;28;21005;-65
2023/07/23 05:33:27;;;;;;;3.20;2.77;;;24.10;41.30;;;;;;5005709;28;20513;-65
2023/07/23 05:35:56;;;;;;;2.93;2.70;;;24.10;41.30;;;;;;5000468;28;20458;-65
2023/07/23 05:38:26;;;;;;;2.93;2.50;;;24.10;41.30;;;;;;5019634;28;20913;-67
2023/07/23 05:40:58;;;;;;;2.60;2.40;;;24.10;41.30;;;;;;5015947;28;20527;-67
2023/07/23 05:43:27;;;;;;;2.70;2.50;;;24.10;41.00;;;;;;5007790;28;20460;-66
2023/07/23 05:45:57;;;;;;;2.90;2.70;;;24.00;41.50;;;;;;5008735;28;20444;-67
2023/07/23 05:48:26;;;;;;;2.63;2.43;;;24.10;41.60;;;;;;5005696;28;20443;-66
2023/07/23 05:50:55;;;;;;;3.40;3.13;;;24.10;41.70;;;;;;5025046;28;20796;-66
2023/07/23 05:53:25;;;;;;;2.83;2.63;;;24.00;41.30;;;;;;4994661;28;21125;-66
2023/07/23 05:55:53;;;;;;;2.30;2.10;;;24.00;41.40;;;;;;5027769;28;20475;-66
2023/07/23 05:58:21;;;;;;;2.77;2.57;;;24.00;41.40;;;;;;5024824;28;20992;-65
2023/07/23 06:00:50;;;;;;;2.70;2.50;;;24.00;41.20;;;;;;5010220;28;20453;-66
2023/07/23 06:03:18;;;;;;;2.60;2.40;;;24.00;41.40;;;;;;5033785;28;20488;-65
2023/07/23 06:05:47;;;;;;;2.90;2.30;;;24.00;41.30;;;;;;5009845;28;20825;-65
2023/07/23 06:08:15;;;;;;;2.70;2.30;;;24.00;41.30;;;;;;5001555;28;20473;-65
2023/07/23 06:10:45;;;;;;;2.83;2.53;;;24.00;41.30;;;;;;5005066;28;20457;-66
2023/07/23 06:13:13;;;;;;;2.93;2.70;;;24.00;41.30;;;;;;5024587;28;20449;-65
2023/07/23 06:15:42;;;;;;;2.50;2.30;;;24.00;41.70;;;;;;5025610;28;20453;-66
2023/07/23 06:18:10;;;;;;;2.80;2.37;;;24.00;41.60;;;;;;5009311;28;20445;-65
2023/07/23 06:20:38;;;;;;;2.40;2.20;;;24.00;41.30;;;;;;5021034;28;21073;-66
2023/07/23 06:23:07;;;;;;;2.50;2.30;;;24.00;41.30;;;;;;5013379;28;21075;-67
2023/07/23 06:25:35;;;;;;;3.17;2.10;;;24.00;41.30;;;;;;5008498;28;20450;-67
2023/07/23 06:28:05;;;;;;;3.00;2.80;;;24.00;41.30;;;;;;5025434;28;20496;-66
2023/07/23 06:30:35;;;;;;;2.47;2.10;;;24.00;41.60;;;;;;5002457;28;20480;-67
2023/07/23 06:33:04;;;;;;;2.43;2.00;;;24.00;41.10;;;;;;5024523;28;20477;-66
2023/07/23 06:35:37;;;;;;;2.70;2.43;;;24.00;41.40;;;;;;5023565;28;20440;-67
2023/07/23 06:38:05;;;;;;;2.90;2.60;;;24.00;41.50;;;;;;5005227;28;20953;-67
2023/07/23 06:40:34;;;;;;;2.30;2.10;;;24.00;41.50;;;;;;5022439;28;21095;-65
2023/07/23 06:43:04;;;;;;;2.67;2.47;;;23.90;41.10;;;;;;5024644;28;20550;-67
2023/07/23 06:45:33;;;;;;;2.37;2.17;;;23.90;41.10;;;;;;5022357;28;20494;-65
2023/07/23 06:48:01;;;;;;;2.33;2.13;;;23.90;41.40;;;;;;5031979;28;20431;-67
2023/07/23 06:50:31;;;;;;;2.47;2.27;;;23.90;41.40;;;;;;5005861;28;20496;-67
2023/07/23 06:52:59;;;;;;;2.70;2.50;;;23.90;41.40;;;;;;5021562;28;20418;-67
2023/07/23 06:55:29;;;;;;;3.57;2.77;;;23.90;41.40;;;;;;5000903;28;20465;-66
2023/07/23 06:57:58;;;;;;;3.17;2.90;;;23.90;41.40;;;;;;5007078;28;20431;-66
2023/07/23 07:00:28;;;;;;;2.50;2.20;;;23.90;41.40;;;;;;5011869;28;20531;-65
2023/07/23 07:02:56;;;;;;;3.10;2.60;;;23.90;41.50;;;;;;5028213;28;20470;-66
2023/07/23 07:05:25;;;;;;;3.00;2.70;;;23.90;41.40;;;;;;5012432;28;20443;-66
2023/07/23 07:07:53;;;;;;;2.57;2.37;;;23.90;41.50;;;;;;5024654;28;20436;-65
2023/07/23 07:10:23;;;;;;;2.83;2.40;;;23.90;41.50;;;;;;5005231;28;20452;-67
2023/07/23 07:12:51;;;;;;;3.17;2.43;;;23.90;41.40;;;;;;5031821;28;20451;-65
2023/07/23 07:15:20;;;;;;;2.40;2.20;;;23.90;41.30;;;;;;5008455;28;20448;-65
2023/07/23 07:17:50;;;;;;;2.50;2.30;;;23.90;41.60;;;;;;5004187;28;20475;-65
2023/07/23 07:20:18;;;;;;;2.47;2.27;;;23.90;41.70;;;;;;5010630;28;20450;-66
2023/07/23 07:22:47;;;;;;;2.10;1.90;;;23.90;41.60;;;;;;5028322;28;20822;-65
2023/07/23 07:25:15;;;;;;;2.47;1.90;;;23.90;41.60;;;;;;5021309;28;20441;-65
2023/07/23 07:27:44;;;;;;;2.10;2.00;;;23.90;41.60;;;;;;5035213;28;20485;-66
2023/07/23 07:30:13;;;;;;;2.20;2.00;;;23.90;41.70;;;;;;5006535;28;20466;-66
2023/07/23 07:32:41;;;;;;;2.47;2.10;;;23.90;42.10;;;;;;5003004;28;20485;-66
2023/07/23 07:35:11;;;;;;;2.07;1.87;;;23.90;42.10;;;;;;5026224;28;20828;-64
2023/07/23 07:37:40;;;;;;;2.40;2.20;;;23.90;43.50;;;;;;5011670;28;20499;-66
2023/07/23 07:40:10;;;;;;;2.60;2.40;;;23.80;42.10;;;;;;5005980;28;20449;-67
2023/07/23 07:42:39;;;;;;;2.43;2.20;;;23.90;42.30;;;;;;5009761;28;21245;-64
2023/07/23 07:45:08;;;;;;;2.33;2.13;;;23.90;42.20;;;;;;5005800;28;20475;-67
2023/07/23 07:47:36;;;;;;;2.40;2.20;;;23.90;42.20;;;;;;5005893;28;21005;-66
2023/07/23 07:50:07;;;;;;;2.80;2.50;;;23.90;42.40;;;;;;5002280;28;20197;-65
2023/07/23 07:52:37;;;;;;;2.20;2.00;;;23.80;42.20;;;;;;4995201;28;20472;-67
2023/07/23 07:55:07;;;;;;;2.33;2.10;;;23.80;42.40;;;;;;5005200;28;20537;-67
2023/07/23 07:57:36;;;;;;;2.77;2.57;;;23.80;42.40;;;;;;5003349;28;20834;-66
2023/07/23 08:00:11;;;;;;;3.13;2.70;;;23.80;42.50;;;;;;5020689;28;20976;-66
2023/07/23 08:02:43;;;;;;;2.83;2.50;;;23.80;42.60;;;;;;5024595;28;20498;-65
2023/07/23 08:05:13;;;;;;;2.93;2.60;;;23.80;42.70;;;;;;5024554;28;20478;-65
2023/07/23 08:07:44;;;;;;;3.10;2.23;;;23.70;42.30;;;;;;5008366;28;20459;-65
2023/07/23 08:10:13;;;;;;;2.90;2.70;;;23.80;42.90;;;;;;5025744;28;20457;-66
2023/07/23 08:12:42;;;;;;;2.63;2.43;;;23.80;42.90;;;;;;5024142;28;20480;-67
2023/07/23 08:15:11;;;;;;;2.67;2.47;;;23.80;42.90;;;;;;5008948;28;20994;-65
2023/07/23 08:17:40;;;;;;;4.30;1.90;;;23.80;43.00;;;;;;5031723;28;20495;-66
2023/07/23 08:20:10;;;;;;;4.57;2.47;;;23.80;43.10;;;;;;5008870;28;20452;-65
2023/07/23 08:22:39;;;;;;;3.30;2.23;;;23.80;43.50;;;;;;5004466;28;20475;-67
2023/07/23 08:25:11;;;;;;;2.60;2.40;;;23.80;43.50;;;;;;5005516;28;20528;-66
2023/07/23 08:27:42;;;;;;;2.60;2.40;;;23.80;43.70;;;;;;5034099;28;20486;-65
2023/07/23 08:30:13;;;;;;;2.10;1.90;;;23.80;43.60;;;;;;5009021;28;20443;-67
2023/07/23 08:32:43;;;;;;;3.20;2.57;;;23.80;43.70;;;;;;5006806;28;20482;-67
2023/07/23 08:35:12;;;;;;;3.30;2.40;;;23.70;43.90;;;;;;5033721;28;20538;-66
2023/07/23 08:37:41;;;;;;;2.57;2.37;;;23.70;44.00;;;;;;5005774;28;20548;-66
2023/07/23 08:40:13;;;;;;;2.37;2.17;;;23.70;43.90;;;;;;5008486;28;20455;-66
2023/07/23 08:43:12;;;;;;;2.67;2.47;;;23.70;44.10;;;;;;5021410;28;20476;-64
2023/07/23 08:46:14;;;;;;;2.30;2.10;;;23.80;44.10;;;;;;5013557;28;20547;-65
2023/07/23 08:49:05;;;;;;;2.73;2.33;;;23.70;44.00;;;;;;5021367;28;20465;-66
2023/07/23 08:51:41;;;;;;;2.40;2.20;;;23.70;44.00;;;;;;5027375;28;20918;-66
2023/07/23 08:54:11;;;;;;;2.10;1.90;;;23.70;44.20;;;;;;5027531;28;20577;-66
2023/07/23 08:56:42;;;;;;;2.17;1.97;;;23.80;44.10;;;;;;5023473;28;20841;-66
2023/07/23 08:59:13;;;;;;;2.50;2.30;;;23.80;44.40;;;;;;5010028;28;20670;-66
2023/07/23 09:01:43;;;;;;;2.70;2.30;;;23.80;44.50;;;;;;5011471;28;20458;-65
2023/07/23 09:04:19;;;;;;;2.30;2.10;;;23.80;44.30;;;;;;5013321;28;20842;-66
2023/07/23 09:06:49;;;;;;;1.63;1.37;;;23.70;44.20;;;;;;5021575;28;20494;-65
2023/07/23 09:09:18;;;;;;;2.37;1.90;;;23.80;44.30;;;;;;5026444;28;20459;-65
2023/07/23 09:11:48;;;;;;;2.03;1.83;;;23.80;44.50;;;;;;5008849;28;20499;-66
2023/07/23 09:14:17;;;;;;;2.77;2.30;;;23.80;44.60;;;;;;5011577;28;20471;-64
2023/07/23 09:16:50;;;;;;;2.23;2.03;;;23.80;45.40;;;;;;5010157;28;20589;-65
2023/07/23 09:19:26;;;;;;;2.33;2.13;;;23.80;45.00;;;;;;5008629;28;20539;-65
2023/07/23 09:21:57;;;;;;;2.43;2.23;;;23.70;45.10;;;;;;5025033;28;20481;-65
2023/07/23 09:24:32;;;;;;;2.27;2.07;;;23.70;44.80;;;;;;5007263;28;20478;-65
2023/07/23 09:27:03;;;;;;;2.10;2.00;;;23.70;45.20;;;;;;5010837;28;20463;-65
2023/07/23 09:29:36;;;;;;;2.43;2.23;;;23.70;45.30;;;;;;5034461;28;20451;-67
2023/07/23 09:32:16;;;;;;;2.13;1.93;;;23.70;45.30;;;;;;5003162;28;20456;-65
2023/07/23 09:34:47;;;;;;;2.47;2.27;;;23.70;45.20;;;;;;5002955;28;20466;-66
2023/07/23 09:37:17;;;;;;;2.00;1.80;;;23.70;45.40;;;;;;4999428;28;20489;-66
2023/07/23 09:39:46;;;;;;;2.20;1.57;;;23.70;45.60;;;;;;5007106;28;20447;-66
2023/07/23 09:42:21;;;;;;;2.27;2.07;;;23.70;45.70;;;;;;5010176;28;20455;-65
2023/07/23 09:44:54;;;;;;;2.47;1.83;;;23.70;46.10;;;;;;5006538;28;20491;-65
2023/07/23 09:47:26;;;;;;;2.13;2.00;;;23.70;45.90;;;;;;5016239;28;20834;-65
2023/07/23 09:49:55;;;;;;;2.10;1.90;;;23.70;46.30;;;;;;5006321;28;20447;-65
2023/07/23 09:52:24;;;;;;;2.83;2.33;;;23.70;46.40;;;;;;4987610;28;20523;-64
2023/07/23 09:54:54;;;;;;;2.13;1.93;;;23.70;46.00;;;;;;5026148;28;21071;-73
2023/07/23 09:57:26;;;;;;;2.03;1.83;;;23.70;46.40;;;;;;5005881;28;20463;-72
2023/07/23 09:59:57;;;;;;;2.07;1.87;;;23.70;46.30;;;;;;5011839;28;20435;-73
2023/07/23 10:02:28;;;;;;;2.50;2.00;;;23.70;46.60;;;;;;5013513;28;20463;-73
2023/07/23 10:04:59;;;;;;;2.20;2.00;;;23.70;46.80;;;;;;5004526;28;20465;-72
2023/07/23 10:07:30;;;;;;;1.93;1.80;;;23.70;46.40;;;;;;5001730;28;20580;-71
2023/07/23 10:10:00;;;;;;;1.90;1.70;;;23.70;46.80;;;;;;5008316;28;20465;-73
2023/07/23 10:12:32;;;;;;;1.93;1.77;;;23.70;46.60;;;;;;5011465;28;20497;-71
2023/07/23 10:15:04;;;;;;;2.60;2.37;;;23.70;46.70;;;;;;5024582;28;20443;-72
2023/07/23 10:17:37;;;;;;;2.33;2.10;;;23.70;46.70;;;;;;5007120;28;21045;-72
2023/07/23 10:20:08;;;;;;;2.20;2.00;;;23.70;46.80;;;;;;5014875;28;20457;-71
2023/07/23 10:22:39;;;;;;;2.27;1.63;;;23.70;46.80;;;;;;5009136;28;20464;-73
2023/07/23 10:25:25;;;;;;;2.23;2.03;;;23.70;46.70;;;;;;5005428;28;20984;-72
2023/07/23 10:28:00;;;;;;;2.53;2.30;;;23.70;46.50;;;;;;5021689;28;20471;-71
2023/07/23 10:30:30;;;;;;;2.50;1.83;;;23.70;46.80;;;;;;5029111;28;20535;-72
2023/07/23 10:33:31;;;;;;;2.30;1.87;;;23.70;46.50;;;;;;5007402;28;20444;-73
2023/07/23 10:36:04;;;;;;;1.83;1.73;;;23.70;46.40;;;;;;5002881;28;20471;-71
2023/07/23 10:38:34;;;;;;;1.80;1.40;;;23.60;46.70;;;;;;4996389;28;20488;-73
2023/07/23 10:41:04;;;;;;;2.47;1.90;;;23.70;46.50;;;;;;5024246;28;20935;-72
2023/07/23 10:43:45;;;;;;;2.27;1.90;;;23.70;46.70;;;;;;5019268;28;20457;-72
2023/07/23 10:46:14;;;;;;;3.13;2.07;;;23.70;46.70;;;;;;4996223;28;20462;-72
2023/07/23 10:48:47;;;;;;;2.03;1.83;;;23.70;46.60;;;;;;5024986;28;20962;-71
2023/07/23 10:51:18;;;;;;;1.80;1.70;;;23.70;46.70;;;;;;5028459;28;20454;-73
2023/07/23 10:53:56;;;;;;;2.10;1.90;;;23.70;46.70;;;;;;5028626;28;20603;-71
2023/07/23 10:56:32;;;;;;;1.70;1.60;;;23.70;46.70;;;;;;5026121;28;20470;-73
2023/07/23 10:59:06;;;;;;;1.70;1.60;;;23.60;46.50;;;;;;5009219;28;20427;-71
2023/07/23 11:01:36;;;;;;;1.37;1.27;;;23.60;46.80;;;;;;5023939;28;20487;-71
2023/07/23 11:04:10;;;;;;;2.17;1.77;;;23.60;46.80;;;;;;5007604;28;20653;-73
2023/07/23 11:06:41;;;;;;;2.27;1.70;;;23.60;46.80;;;;;;5021674;28;20474;-72
2023/07/23 11:09:11;;;;;;;2.23;1.60;;;23.60;46.80;;;;;;5006719;28;20452;-71
2023/07/23 11:11:42;;;;;;;2.10;1.67;;;23.60;46.70;;;;;;5019440;28;20510;-71
2023/07/23 11:14:19;;;;;;;1.90;1.70;;;23.60;46.90;;;;;;5018353;28;20480;-71
2023/07/23 11:16:50;;;;;;;2.07;1.87;;;23.60;46.70;;;;;;5003598;28;21027;-73
2023/07/23 11:19:20;;;;;;;1.73;1.63;;;23.60;46.80;;;;;;5021231;28;20935;-72
2023/07/23 11:21:50;;;;;;;1.90;1.60;;;23.60;47.00;;;;;;4990751;28;20472;-71
2023/07/23 11:24:20;;;;;;;3.20;1.70;;;23.60;47.20;;;;;;5032088;28;20522;-71
2023/07/23 11:26:49;;;;;;;2.57;1.60;;;23.60;47.20;;;;;;5021472;28;20567;-71
2023/07/23 11:29:23;;;;;;;2.00;1.80;;;23.60;47.20;;;;;;5005570;28;20960;-71
2023/07/23 11:31:52;;;;;;;2.00;1.80;;;23.60;47.20;;;;;;5020975;28;21020;-72
2023/07/23 11:34:23;;;;;;;2.10;1.90;;;23.60;47.30;;;;;;5013384;28;20989;-72
2023/07/23 11:36:55;;;;;;;1.93;1.73;;;23.70;47.20;;;;;;5019969;28;20797;-72
2023/07/23 11:39:24;;;;;;;2.00;1.80;;;23.60;47.20;;;;;;5000619;28;20452;-72
2023/07/23 11:41:55;;;;;;;1.70;1.53;;;23.60;47.30;;;;;;5006183;28;20482;-72
2023/07/23 11:44:25;;;;;;;1.63;1.53;;;23.60;47.10;;;;;;5004605;28;20474;-71
2023/07/23 11:47:01;;;;;;;1.43;1.33;;;23.60;47.20;;;;;;5025073;28;20512;-73
2023/07/23 11:49:29;;;;;;;1.57;1.47;;;23.70;47.40;;;;;;5009654;28;20794;-72
2023/07/23 11:51:59;;;;;;;1.53;1.43;;;23.60;47.50;;;;;;5024482;28;20991;-73
2023/07/23 11:54:27;;;;;;;2.13;1.80;;;23.70;47.50;;;;;;5017129;28;20565;-72
2023/07/23 11:56:56;;;;;;;1.53;1.43;;;23.70;47.40;;;;;;5025564;28;20467;-73
2023/07/23 11:59:26;;;;;;;1.50;1.27;;;23.70;48.60;;;;;;5009205;28;20452;-72
2023/07/23 12:01:58;;;;;;;2.17;1.67;;;23.70;47.60;;;;;;5024740;28;20566;-72
2023/07/23 12:04:27;;;;;;;1.37;1.23;;;23.60;47.50;;;;;;5022410;28;20467;-73
2023/07/23 12:06:57;;;;;;;1.60;1.50;;;23.70;47.50;;;;;;5006721;28;20510;-72
2023/07/23 12:09:26;;;;;;;2.53;1.70;;;23.70;47.70;;;;;;4983952;28;20965;-71
2023/07/23 12:11:54;;;;;;;2.17;1.40;;;23.70;47.80;;;;;;4998529;28;20467;-72
2023/07/23 12:14:23;;;;;;;1.33;1.20;;;23.70;47.70;;;;;;5001501;28;20485;-71
2023/07/23 12:16:56;;;;;;;1.57;1.30;;;23.70;47.70;;;;;;5016804;28;21015;-71
2023/07/23 12:19:25;;;;;;;1.80;1.70;;;23.70;47.90;;;;;;5027777;28;20485;-72
2023/07/23 12:21:57;;;;;;;1.40;1.30;;;23.70;47.70;;;;;;5024621;28;20474;-72
2023/07/23 12:24:28;;;;;;;1.50;1.40;;;23.70;47.80;;;;;;5001103;28;20839;-71
2023/07/23 12:26:58;;;;;;;2.03;1.20;;;23.60;48.90;;;;;;5012431;28;20474;-72
2023/07/23 12:29:28;;;;;;;1.33;1.20;;;23.60;48.80;;;;;;5008365;28;20445;-73
2023/07/23 12:32:12;;;;;;;2.27;1.13;;;23.60;48.70;;;;;;5025661;28;20496;-71
2023/07/23 12:34:42;;;;;;;2.33;1.50;;;23.60;48.60;;;;;;5021907;28;20480;-72
2023/07/23 12:37:11;;;;;;;1.40;1.10;;;23.60;48.60;;;;;;5007973;28;21112;-73
2023/07/23 12:39:39;;;;;;;1.20;1.00;;;23.60;48.50;;;;;;5026547;28;20962;-72
2023/07/23 12:42:08;;;;;;;2.23;1.27;;;23.60;48.50;;;;;;5024647;28;21138;-71
2023/07/23 12:44:37;;;;;;;2.10;1.50;;;23.70;48.80;;;;;;5024689;28;20497;-72
2023/07/23 12:47:06;;;;;;;1.80;1.47;;;23.70;48.30;;;;;;5027217;28;20471;-72
2023/07/23 12:49:36;;;;;;;1.47;1.37;;;23.70;48.70;;;;;;5001309;28;20445;-72
2023/07/23 12:52:05;;;;;;;1.47;0.90;;;23.70;48.60;;;;;;5015335;28;20462;-73
2023/07/23 12:54:34;;;;;;;1.33;1.07;;;23.70;48.70;;;;;;5036951;28;20478;-71
2023/07/23 12:57:03;;;;;;;1.20;1.10;;;23.70;48.70;;;;;;5024693;28;20475;-73
2023/07/23 12:59:35;;;;;;;1.63;1.30;;;23.70;48.80;;;;;;5008761;28;20846;-72
2023/07/23 13:02:03;;;;;;;1.23;1.13;;;23.70;48.70;;;;;;5025118;28;20463;-71